sensor_id;sensor_type;location;lat;lon;timestamp;P1;durP1;ratioP1;P2;durP2;ratioP2
68803;SDS011;55787;52.678;13.314;2022-10-10T00:01:09;7.33;;;1.67;;
68803;SDS011;55787;52.678;13.314;2022-10-10T00:03:36;10.15;;;2.28;;
68803;SDS011;55787;52.678;13.314;2022-10-10T00:06:02;8.48;;;1.90;;
68803;SDS011;55787;52.678;13.314;2022-10-10T00:08:29;7.70;;;1.95;;
68803;SDS011;55787;52.678;13.314;2022-10-10T00:10:56;11.55;;;2.17;;
68803;SDS011;55787;52.678;13.314;2022-10-10T00:13:22;12.27;;;2.20;;
68803;SDS011;55787;52.678;13.314;2022-10-10T00:15:49;9.82;;;2.10;;
68803;SDS011;55787;52.678;13.314;2022-10-10T00:18:16;7.63;;;1.80;;
68803;SDS011;55787;52.678;13.314;2022-10-10T00:20:42;10.80;;;2.00;;
68803;SDS011;55787;52.678;13.314;2022-10-10T00:23:09;8.27;;;1.95;;
68803;SDS011;55787;52.678;13.314;2022-10-10T00:25:36;8.77;;;2.10;;
68803;SDS011;55787;52.678;13.314;2022-10-10T00:28:03;8.70;;;2.00;;
68803;SDS011;55787;52.678;13.314;2022-10-10T00:30:30;8.48;;;1.88;;
68803;SDS011;55787;52.678;13.314;2022-10-10T00:32:57;8.35;;;2.15;;
68803;SDS011;55787;52.678;13.314;2022-10-10T00:35:25;11.48;;;2.10;;
68803;SDS011;55787;52.678;13.314;2022-10-10T00:37:53;10.57;;;2.00;;
68803;SDS011;55787;52.678;13.314;2022-10-10T00:40:20;11.02;;;2.00;;
68803;SDS011;55787;52.678;13.314;2022-10-10T00:42:47;11.65;;;1.75;;
68803;SDS011;55787;52.678;13.314;2022-10-10T00:47:55;9.95;;;2.40;;
68803;SDS011;55787;52.678;13.314;2022-10-10T00:50:26;11.43;;;2.00;;
68803;SDS011;55787;52.678;13.314;2022-10-10T00:52:56;11.38;;;1.90;;
68803;SDS011;55787;52.678;13.314;2022-10-10T00:55:24;8.60;;;1.90;;
68803;SDS011;55787;52.678;13.314;2022-10-10T00:57:51;15.50;;;2.30;;
68803;SDS011;55787;52.678;13.314;2022-10-10T01:00:18;10.00;;;1.90;;
68803;SDS011;55787;52.678;13.314;2022-10-10T01:02:45;7.50;;;1.70;;
68803;SDS011;55787;52.678;13.314;2022-10-10T01:05:11;8.07;;;2.10;;
68803;SDS011;55787;52.678;13.314;2022-10-10T01:07:38;10.02;;;1.90;;
68803;SDS011;55787;52.678;13.314;2022-10-10T01:10:07;12.00;;;2.17;;
68803;SDS011;55787;52.678;13.314;2022-10-10T01:12:44;7.88;;;2.10;;
68803;SDS011;55787;52.678;13.314;2022-10-10T01:21:27;10.43;;;1.92;;
68803;SDS011;55787;52.678;13.314;2022-10-10T01:26:59;10.70;;;2.03;;
68803;SDS011;55787;52.678;13.314;2022-10-10T01:29:38;9.43;;;1.83;;
68803;SDS011;55787;52.678;13.314;2022-10-10T01:32:13;8.10;;;1.92;;
68803;SDS011;55787;52.678;13.314;2022-10-10T01:34:49;10.90;;;2.10;;
68803;SDS011;55787;52.678;13.314;2022-10-10T01:40:26;7.63;;;1.73;;
68803;SDS011;55787;52.678;13.314;2022-10-10T01:43:00;10.50;;;2.20;;
68803;SDS011;55787;52.678;13.314;2022-10-10T01:45:29;8.38;;;2.13;;
68803;SDS011;55787;52.678;13.314;2022-10-10T01:47:57;11.95;;;1.95;;
68803;SDS011;55787;52.678;13.314;2022-10-10T01:50:28;11.93;;;2.20;;
68803;SDS011;55787;52.678;13.314;2022-10-10T01:53:05;10.55;;;2.30;;
68803;SDS011;55787;52.678;13.314;2022-10-10T01:55:46;10.13;;;2.00;;
68803;SDS011;55787;52.678;13.314;2022-10-10T01:58:34;8.27;;;1.80;;
68803;SDS011;55787;52.678;13.314;2022-10-10T02:01:15;10.48;;;2.22;;
68803;SDS011;55787;52.678;13.314;2022-10-10T02:03:47;10.82;;;2.20;;
68803;SDS011;55787;52.678;13.314;2022-10-10T02:06:34;11.52;;;2.30;;
68803;SDS011;55787;52.678;13.314;2022-10-10T02:09:22;9.43;;;2.20;;
68803;SDS011;55787;52.678;13.314;2022-10-10T02:11:53;11.43;;;2.33;;
68803;SDS011;55787;52.678;13.314;2022-10-10T02:14:22;8.82;;;2.50;;
68803;SDS011;55787;52.678;13.314;2022-10-10T02:16:55;7.50;;;1.83;;
68803;SDS011;55787;52.678;13.314;2022-10-10T02:19:25;9.18;;;2.33;;
68803;SDS011;55787;52.678;13.314;2022-10-10T02:21:52;8.87;;;2.00;;
68803;SDS011;55787;52.678;13.314;2022-10-10T02:24:22;11.07;;;2.22;;
68803;SDS011;55787;52.678;13.314;2022-10-10T02:26:55;9.15;;;2.42;;
68803;SDS011;55787;52.678;13.314;2022-10-10T02:29:28;10.48;;;2.42;;
68803;SDS011;55787;52.678;13.314;2022-10-10T02:32:05;10.65;;;2.13;;
68803;SDS011;55787;52.678;13.314;2022-10-10T02:34:55;10.20;;;2.10;;
68803;SDS011;55787;52.678;13.314;2022-10-10T02:37:25;8.88;;;2.17;;
68803;SDS011;55787;52.678;13.314;2022-10-10T02:39:54;11.10;;;2.13;;
68803;SDS011;55787;52.678;13.314;2022-10-10T02:42:25;9.32;;;2.20;;
68803;SDS011;55787;52.678;13.314;2022-10-10T02:44:54;8.60;;;2.08;;
68803;SDS011;55787;52.678;13.314;2022-10-10T02:47:22;10.90;;;2.20;;
68803;SDS011;55787;52.678;13.314;2022-10-10T02:49:49;9.80;;;2.20;;
68803;SDS011;55787;52.678;13.314;2022-10-10T02:52:16;9.32;;;2.22;;
68803;SDS011;55787;52.678;13.314;2022-10-10T02:54:43;12.65;;;2.80;;
68803;SDS011;55787;52.678;13.314;2022-10-10T02:57:09;10.13;;;2.60;;
68803;SDS011;55787;52.678;13.314;2022-10-10T02:59:36;9.13;;;2.33;;
68803;SDS011;55787;52.678;13.314;2022-10-10T03:02:03;13.35;;;2.40;;
68803;SDS011;55787;52.678;13.314;2022-10-10T03:04:29;9.43;;;2.40;;
68803;SDS011;55787;52.678;13.314;2022-10-10T03:06:56;10.27;;;2.10;;
68803;SDS011;55787;52.678;13.314;2022-10-10T03:09:22;10.25;;;2.40;;
68803;SDS011;55787;52.678;13.314;2022-10-10T03:11:49;8.63;;;2.27;;
68803;SDS011;55787;52.678;13.314;2022-10-10T03:14:15;11.27;;;2.53;;
68803;SDS011;55787;52.678;13.314;2022-10-10T03:16:42;10.10;;;2.20;;
68803;SDS011;55787;52.678;13.314;2022-10-10T03:19:08;12.18;;;2.50;;
68803;SDS011;55787;52.678;13.314;2022-10-10T03:21:35;9.40;;;2.30;;
68803;SDS011;55787;52.678;13.314;2022-10-10T03:24:02;8.10;;;2.33;;
68803;SDS011;55787;52.678;13.314;2022-10-10T03:26:30;9.30;;;2.45;;
68803;SDS011;55787;52.678;13.314;2022-10-10T03:28:57;11.60;;;2.83;;
68803;SDS011;55787;52.678;13.314;2022-10-10T03:31:24;9.65;;;2.60;;
68803;SDS011;55787;52.678;13.314;2022-10-10T03:33:50;8.32;;;2.60;;
68803;SDS011;55787;52.678;13.314;2022-10-10T03:36:17;7.10;;;2.20;;
68803;SDS011;55787;52.678;13.314;2022-10-10T03:38:43;11.43;;;2.50;;
68803;SDS011;55787;52.678;13.314;2022-10-10T03:41:10;10.43;;;2.50;;
68803;SDS011;55787;52.678;13.314;2022-10-10T03:43:36;11.70;;;2.58;;
68803;SDS011;55787;52.678;13.314;2022-10-10T03:46:06;11.32;;;2.95;;
68803;SDS011;55787;52.678;13.314;2022-10-10T03:48:32;10.43;;;2.70;;
68803;SDS011;55787;52.678;13.314;2022-10-10T03:50:59;10.52;;;2.85;;
68803;SDS011;55787;52.678;13.314;2022-10-10T03:53:25;11.82;;;2.70;;
68803;SDS011;55787;52.678;13.314;2022-10-10T03:55:52;10.35;;;2.67;;
68803;SDS011;55787;52.678;13.314;2022-10-10T03:58:20;12.45;;;2.67;;
68803;SDS011;55787;52.678;13.314;2022-10-10T04:00:56;12.07;;;2.80;;
68803;SDS011;55787;52.678;13.314;2022-10-10T04:03:23;10.25;;;3.15;;
68803;SDS011;55787;52.678;13.314;2022-10-10T04:05:51;10.82;;;2.92;;
68803;SDS011;55787;52.678;13.314;2022-10-10T04:08:18;12.80;;;2.88;;
68803;SDS011;55787;52.678;13.314;2022-10-10T04:10:51;9.70;;;2.85;;
68803;SDS011;55787;52.678;13.314;2022-10-10T04:13:19;13.87;;;2.80;;
68803;SDS011;55787;52.678;13.314;2022-10-10T04:15:49;10.00;;;2.72;;
68803;SDS011;55787;52.678;13.314;2022-10-10T04:18:17;12.27;;;3.00;;
68803;SDS011;55787;52.678;13.314;2022-10-10T04:20:44;9.38;;;2.75;;
68803;SDS011;55787;52.678;13.314;2022-10-10T04:23:11;13.93;;;3.50;;
68803;SDS011;55787;52.678;13.314;2022-10-10T04:25:37;7.67;;;2.60;;
68803;SDS011;55787;52.678;13.314;2022-10-10T04:28:04;9.93;;;2.90;;
68803;SDS011;55787;52.678;13.314;2022-10-10T04:30:32;12.43;;;3.17;;
68803;SDS011;55787;52.678;13.314;2022-10-10T04:32:59;10.85;;;3.00;;
68803;SDS011;55787;52.678;13.314;2022-10-10T04:35:26;11.55;;;3.25;;
68803;SDS011;55787;52.678;13.314;2022-10-10T04:37:53;10.50;;;3.10;;
68803;SDS011;55787;52.678;13.314;2022-10-10T04:40:20;10.88;;;3.70;;
68803;SDS011;55787;52.678;13.314;2022-10-10T04:42:52;12.60;;;4.70;;
68803;SDS011;55787;52.678;13.314;2022-10-10T04:45:19;22.42;;;9.20;;
68803;SDS011;55787;52.678;13.314;2022-10-10T04:47:46;22.23;;;10.35;;
68803;SDS011;55787;52.678;13.314;2022-10-10T04:50:13;23.70;;;9.40;;
68803;SDS011;55787;52.678;13.314;2022-10-10T04:52:39;20.08;;;7.05;;
68803;SDS011;55787;52.678;13.314;2022-10-10T04:55:06;13.10;;;4.60;;
68803;SDS011;55787;52.678;13.314;2022-10-10T04:57:33;12.52;;;3.35;;
68803;SDS011;55787;52.678;13.314;2022-10-10T04:59:59;12.82;;;3.55;;
68803;SDS011;55787;52.678;13.314;2022-10-10T05:02:26;12.27;;;3.30;;
68803;SDS011;55787;52.678;13.314;2022-10-10T05:04:53;11.18;;;3.85;;
68803;SDS011;55787;52.678;13.314;2022-10-10T05:07:19;11.02;;;4.05;;
68803;SDS011;55787;52.678;13.314;2022-10-10T05:09:46;11.57;;;4.10;;
68803;SDS011;55787;52.678;13.314;2022-10-10T05:12:12;12.52;;;4.43;;
68803;SDS011;55787;52.678;13.314;2022-10-10T05:14:39;13.53;;;5.20;;
68803;SDS011;55787;52.678;13.314;2022-10-10T05:17:11;15.98;;;5.72;;
68803;SDS011;55787;52.678;13.314;2022-10-10T05:19:37;15.73;;;5.18;;
68803;SDS011;55787;52.678;13.314;2022-10-10T05:22:04;12.68;;;4.43;;
68803;SDS011;55787;52.678;13.314;2022-10-10T05:24:31;12.30;;;3.65;;
68803;SDS011;55787;52.678;13.314;2022-10-10T05:26:58;14.90;;;4.03;;
68803;SDS011;55787;52.678;13.314;2022-10-10T05:29:24;11.13;;;3.20;;
68803;SDS011;55787;52.678;13.314;2022-10-10T05:31:51;9.73;;;3.03;;
68803;SDS011;55787;52.678;13.314;2022-10-10T05:34:18;11.57;;;3.30;;
68803;SDS011;55787;52.678;13.314;2022-10-10T05:36:44;10.00;;;2.95;;
68803;SDS011;55787;52.678;13.314;2022-10-10T05:39:11;11.03;;;3.03;;
68803;SDS011;55787;52.678;13.314;2022-10-10T05:41:38;9.95;;;3.22;;
68803;SDS011;55787;52.678;13.314;2022-10-10T05:44:07;10.50;;;3.22;;
68803;SDS011;55787;52.678;13.314;2022-10-10T05:46:34;11.55;;;3.38;;
68803;SDS011;55787;52.678;13.314;2022-10-10T05:49:01;16.02;;;3.97;;
68803;SDS011;55787;52.678;13.314;2022-10-10T05:51:27;11.30;;;3.43;;
68803;SDS011;55787;52.678;13.314;2022-10-10T05:53:54;11.27;;;3.60;;
68803;SDS011;55787;52.678;13.314;2022-10-10T05:56:21;11.13;;;3.53;;
68803;SDS011;55787;52.678;13.314;2022-10-10T05:58:48;11.82;;;3.50;;
68803;SDS011;55787;52.678;13.314;2022-10-10T06:01:16;14.05;;;4.32;;
68803;SDS011;55787;52.678;13.314;2022-10-10T06:03:43;16.23;;;5.20;;
68803;SDS011;55787;52.678;13.314;2022-10-10T06:06:10;12.60;;;4.97;;
68803;SDS011;55787;52.678;13.314;2022-10-10T06:08:39;17.55;;;5.95;;
68803;SDS011;55787;52.678;13.314;2022-10-10T06:11:06;16.08;;;5.15;;
68803;SDS011;55787;52.678;13.314;2022-10-10T06:13:36;11.63;;;3.85;;
68803;SDS011;55787;52.678;13.314;2022-10-10T06:16:03;14.77;;;4.00;;
68803;SDS011;55787;52.678;13.314;2022-10-10T06:18:33;13.77;;;3.90;;
68803;SDS011;55787;52.678;13.314;2022-10-10T06:21:01;12.88;;;3.85;;
68803;SDS011;55787;52.678;13.314;2022-10-10T06:23:29;10.52;;;3.58;;
68803;SDS011;55787;52.678;13.314;2022-10-10T06:25:56;12.13;;;3.65;;
68803;SDS011;55787;52.678;13.314;2022-10-10T06:28:23;12.80;;;3.53;;
68803;SDS011;55787;52.678;13.314;2022-10-10T06:30:51;12.35;;;3.70;;
68803;SDS011;55787;52.678;13.314;2022-10-10T06:33:17;10.93;;;3.67;;
68803;SDS011;55787;52.678;13.314;2022-10-10T06:35:45;12.93;;;3.80;;
68803;SDS011;55787;52.678;13.314;2022-10-10T06:38:14;13.65;;;4.32;;
68803;SDS011;55787;52.678;13.314;2022-10-10T06:40:42;10.57;;;3.50;;
68803;SDS011;55787;52.678;13.314;2022-10-10T06:43:10;12.38;;;3.72;;
68803;SDS011;55787;52.678;13.314;2022-10-10T06:45:38;11.80;;;4.00;;
68803;SDS011;55787;52.678;13.314;2022-10-10T06:48:07;11.80;;;3.80;;
68803;SDS011;55787;52.678;13.314;2022-10-10T06:50:34;13.60;;;3.78;;
68803;SDS011;55787;52.678;13.314;2022-10-10T06:53:01;11.43;;;4.20;;
68803;SDS011;55787;52.678;13.314;2022-10-10T06:55:28;12.27;;;4.38;;
68803;SDS011;55787;52.678;13.314;2022-10-10T06:57:54;14.70;;;4.90;;
68803;SDS011;55787;52.678;13.314;2022-10-10T07:00:22;17.40;;;5.50;;
68803;SDS011;55787;52.678;13.314;2022-10-10T07:02:49;13.85;;;4.97;;
68803;SDS011;55787;52.678;13.314;2022-10-10T07:05:16;12.03;;;4.30;;
68803;SDS011;55787;52.678;13.314;2022-10-10T07:07:43;14.10;;;4.28;;
68803;SDS011;55787;52.678;13.314;2022-10-10T07:10:11;9.82;;;3.65;;
68803;SDS011;55787;52.678;13.314;2022-10-10T07:12:39;12.30;;;3.88;;
68803;SDS011;55787;52.678;13.314;2022-10-10T07:15:10;10.45;;;3.50;;
68803;SDS011;55787;52.678;13.314;2022-10-10T07:17:37;11.47;;;3.90;;
68803;SDS011;55787;52.678;13.314;2022-10-10T07:20:04;12.63;;;3.78;;
68803;SDS011;55787;52.678;13.314;2022-10-10T07:22:31;10.30;;;3.72;;
68803;SDS011;55787;52.678;13.314;2022-10-10T07:24:58;12.02;;;3.70;;
68803;SDS011;55787;52.678;13.314;2022-10-10T07:27:25;11.75;;;3.22;;
68803;SDS011;55787;52.678;13.314;2022-10-10T07:29:52;17.70;;;7.27;;
68803;SDS011;55787;52.678;13.314;2022-10-10T07:32:18;13.18;;;4.20;;
68803;SDS011;55787;52.678;13.314;2022-10-10T07:34:45;12.77;;;3.85;;
68803;SDS011;55787;52.678;13.314;2022-10-10T07:37:11;14.00;;;3.42;;
68803;SDS011;55787;52.678;13.314;2022-10-10T07:39:38;11.95;;;3.45;;
68803;SDS011;55787;52.678;13.314;2022-10-10T07:42:05;10.10;;;3.37;;
68803;SDS011;55787;52.678;13.314;2022-10-10T07:44:31;10.35;;;2.90;;
68803;SDS011;55787;52.678;13.314;2022-10-10T07:47:00;11.07;;;3.08;;
68803;SDS011;55787;52.678;13.314;2022-10-10T07:49:26;11.60;;;3.05;;
68803;SDS011;55787;52.678;13.314;2022-10-10T07:51:53;10.13;;;3.25;;
68803;SDS011;55787;52.678;13.314;2022-10-10T07:54:25;8.93;;;2.73;;
68803;SDS011;55787;52.678;13.314;2022-10-10T07:56:52;10.57;;;3.17;;
68803;SDS011;55787;52.678;13.314;2022-10-10T07:59:19;12.95;;;2.75;;
68803;SDS011;55787;52.678;13.314;2022-10-10T08:01:45;8.13;;;2.33;;
68803;SDS011;55787;52.678;13.314;2022-10-10T08:04:12;10.27;;;3.47;;
68803;SDS011;55787;52.678;13.314;2022-10-10T08:06:39;11.07;;;3.03;;
68803;SDS011;55787;52.678;13.314;2022-10-10T08:09:05;9.75;;;2.85;;
68803;SDS011;55787;52.678;13.314;2022-10-10T08:11:32;9.45;;;2.67;;
68803;SDS011;55787;52.678;13.314;2022-10-10T08:13:58;10.02;;;2.70;;
68803;SDS011;55787;52.678;13.314;2022-10-10T08:16:25;8.85;;;3.10;;
68803;SDS011;55787;52.678;13.314;2022-10-10T08:18:52;8.93;;;2.70;;
68803;SDS011;55787;52.678;13.314;2022-10-10T08:21:18;9.63;;;2.40;;
68803;SDS011;55787;52.678;13.314;2022-10-10T08:23:45;12.73;;;3.70;;
68803;SDS011;55787;52.678;13.314;2022-10-10T08:26:13;8.48;;;2.60;;
68803;SDS011;55787;52.678;13.314;2022-10-10T08:28:40;9.30;;;2.63;;
68803;SDS011;55787;52.678;13.314;2022-10-10T08:31:11;7.80;;;2.20;;
68803;SDS011;55787;52.678;13.314;2022-10-10T08:33:40;8.27;;;2.60;;
68803;SDS011;55787;52.678;13.314;2022-10-10T08:36:08;8.52;;;2.70;;
68803;SDS011;55787;52.678;13.314;2022-10-10T08:38:37;9.85;;;2.75;;
68803;SDS011;55787;52.678;13.314;2022-10-10T08:41:08;8.05;;;2.70;;
68803;SDS011;55787;52.678;13.314;2022-10-10T08:43:51;8.63;;;2.70;;
68803;SDS011;55787;52.678;13.314;2022-10-10T08:46:29;9.68;;;2.80;;
68803;SDS011;55787;52.678;13.314;2022-10-10T08:49:03;8.88;;;2.80;;
68803;SDS011;55787;52.678;13.314;2022-10-10T08:51:41;9.55;;;2.40;;
68803;SDS011;55787;52.678;13.314;2022-10-10T08:54:12;9.63;;;2.60;;
68803;SDS011;55787;52.678;13.314;2022-10-10T08:56:41;10.83;;;3.10;;
68803;SDS011;55787;52.678;13.314;2022-10-10T08:59:13;9.70;;;2.60;;
68803;SDS011;55787;52.678;13.314;2022-10-10T09:01:49;8.63;;;2.72;;
68803;SDS011;55787;52.678;13.314;2022-10-10T09:04:40;9.65;;;2.63;;
68803;SDS011;55787;52.678;13.314;2022-10-10T09:07:17;9.25;;;2.50;;
68803;SDS011;55787;52.678;13.314;2022-10-10T09:10:31;9.03;;;2.77;;
68803;SDS011;55787;52.678;13.314;2022-10-10T09:15:57;7.85;;;2.75;;
68803;SDS011;55787;52.678;13.314;2022-10-10T09:21:28;9.35;;;2.90;;
68803;SDS011;55787;52.678;13.314;2022-10-10T09:24:11;9.33;;;2.80;;
68803;SDS011;55787;52.678;13.314;2022-10-10T09:26:56;7.93;;;2.53;;
68803;SDS011;55787;52.678;13.314;2022-10-10T09:29:36;10.80;;;3.75;;
68803;SDS011;55787;52.678;13.314;2022-10-10T09:32:13;11.23;;;2.88;;
68803;SDS011;55787;52.678;13.314;2022-10-10T09:34:59;11.00;;;5.50;;
68803;SDS011;55787;52.678;13.314;2022-10-10T09:37:31;7.80;;;2.70;;
68803;SDS011;55787;52.678;13.314;2022-10-10T09:40:23;7.97;;;2.35;;
68803;SDS011;55787;52.678;13.314;2022-10-10T09:42:51;8.95;;;2.75;;
68803;SDS011;55787;52.678;13.314;2022-10-10T09:45:18;8.07;;;2.70;;
68803;SDS011;55787;52.678;13.314;2022-10-10T09:47:50;8.77;;;2.45;;
68803;SDS011;55787;52.678;13.314;2022-10-10T09:50:19;8.13;;;2.07;;
68803;SDS011;55787;52.678;13.314;2022-10-10T09:52:46;11.95;;;2.47;;
68803;SDS011;55787;52.678;13.314;2022-10-10T09:58:45;7.53;;;2.40;;
68803;SDS011;55787;52.678;13.314;2022-10-10T10:00:49;7.85;;;2.33;;
68803;SDS011;55787;52.678;13.314;2022-10-10T10:03:17;9.13;;;2.40;;
68803;SDS011;55787;52.678;13.314;2022-10-10T10:05:45;10.25;;;2.47;;
68803;SDS011;55787;52.678;13.314;2022-10-10T10:08:24;7.50;;;2.08;;
68803;SDS011;55787;52.678;13.314;2022-10-10T10:10:55;8.43;;;2.35;;
68803;SDS011;55787;52.678;13.314;2022-10-10T10:13:34;8.30;;;2.40;;
68803;SDS011;55787;52.678;13.314;2022-10-10T10:16:04;8.67;;;2.40;;
68803;SDS011;55787;52.678;13.314;2022-10-10T10:18:36;10.02;;;2.92;;
68803;SDS011;55787;52.678;13.314;2022-10-10T10:21:10;10.63;;;2.40;;
68803;SDS011;55787;52.678;13.314;2022-10-10T10:26:13;7.75;;;2.15;;
68803;SDS011;55787;52.678;13.314;2022-10-10T10:28:44;8.57;;;2.33;;
68803;SDS011;55787;52.678;13.314;2022-10-10T10:31:57;7.85;;;2.30;;
68803;SDS011;55787;52.678;13.314;2022-10-10T10:34:29;6.95;;;1.92;;
68803;SDS011;55787;52.678;13.314;2022-10-10T10:37:13;7.47;;;2.40;;
68803;SDS011;55787;52.678;13.314;2022-10-10T10:44:52;8.40;;;2.38;;
68803;SDS011;55787;52.678;13.314;2022-10-10T10:47:41;9.43;;;2.42;;
68803;SDS011;55787;52.678;13.314;2022-10-10T10:53:18;7.28;;;2.10;;
68803;SDS011;55787;52.678;13.314;2022-10-10T10:56:16;8.90;;;1.83;;
68803;SDS011;55787;52.678;13.314;2022-10-10T11:07:51;7.32;;;2.20;;
68803;SDS011;55787;52.678;13.314;2022-10-10T11:10:38;8.97;;;2.03;;
68803;SDS011;55787;52.678;13.314;2022-10-10T11:13:20;8.02;;;2.10;;
68803;SDS011;55787;52.678;13.314;2022-10-10T11:16:12;9.57;;;2.38;;
68803;SDS011;55787;52.678;13.314;2022-10-10T11:19:03;10.82;;;2.70;;
68803;SDS011;55787;52.678;13.314;2022-10-10T11:21:51;8.40;;;2.50;;
68803;SDS011;55787;52.678;13.314;2022-10-10T11:24:29;8.00;;;1.90;;
68803;SDS011;55787;52.678;13.314;2022-10-10T11:27:08;7.72;;;2.10;;
68803;SDS011;55787;52.678;13.314;2022-10-10T11:29:53;8.70;;;2.40;;
68803;SDS011;55787;52.678;13.314;2022-10-10T11:32:33;9.05;;;2.10;;
68803;SDS011;55787;52.678;13.314;2022-10-10T11:37:38;9.07;;;2.50;;
68803;SDS011;55787;52.678;13.314;2022-10-10T11:40:17;7.60;;;2.20;;
68803;SDS011;55787;52.678;13.314;2022-10-10T11:43:06;7.63;;;2.30;;
68803;SDS011;55787;52.678;13.314;2022-10-10T11:45:44;6.93;;;2.00;;
68803;SDS011;55787;52.678;13.314;2022-10-10T11:48:25;6.90;;;2.10;;
68803;SDS011;55787;52.678;13.314;2022-10-10T11:51:00;7.03;;;1.90;;
68803;SDS011;55787;52.678;13.314;2022-10-10T11:53:39;7.20;;;1.90;;
68803;SDS011;55787;52.678;13.314;2022-10-10T11:56:16;6.60;;;2.00;;
68803;SDS011;55787;52.678;13.314;2022-10-10T11:59:03;8.05;;;1.80;;
68803;SDS011;55787;52.678;13.314;2022-10-10T12:01:40;6.88;;;1.63;;
68803;SDS011;55787;52.678;13.314;2022-10-10T12:04:12;5.93;;;1.80;;
68803;SDS011;55787;52.678;13.314;2022-10-10T12:06:40;6.88;;;1.90;;
68803;SDS011;55787;52.678;13.314;2022-10-10T12:09:27;7.68;;;2.20;;
68803;SDS011;55787;52.678;13.314;2022-10-10T12:11:59;6.50;;;1.90;;
68803;SDS011;55787;52.678;13.314;2022-10-10T12:14:47;7.07;;;2.10;;
68803;SDS011;55787;52.678;13.314;2022-10-10T12:17:20;6.20;;;1.70;;
68803;SDS011;55787;52.678;13.314;2022-10-10T12:19:51;8.23;;;2.20;;
68803;SDS011;55787;52.678;13.314;2022-10-10T12:22:25;7.93;;;2.38;;
68803;SDS011;55787;52.678;13.314;2022-10-10T12:27:43;9.75;;;2.33;;
68803;SDS011;55787;52.678;13.314;2022-10-10T12:30:15;7.50;;;2.20;;
68803;SDS011;55787;52.678;13.314;2022-10-10T12:32:47;8.73;;;2.15;;
68803;SDS011;55787;52.678;13.314;2022-10-10T12:35:29;7.85;;;2.10;;
68803;SDS011;55787;52.678;13.314;2022-10-10T12:46:07;7.18;;;2.03;;
68803;SDS011;55787;52.678;13.314;2022-10-10T12:48:41;6.93;;;1.92;;
68803;SDS011;55787;52.678;13.314;2022-10-10T12:51:19;7.28;;;2.17;;
68803;SDS011;55787;52.678;13.314;2022-10-10T12:53:48;9.20;;;2.10;;
68803;SDS011;55787;52.678;13.314;2022-10-10T12:56:38;6.73;;;2.07;;
68803;SDS011;55787;52.678;13.314;2022-10-10T12:59:18;6.35;;;1.92;;
68803;SDS011;55787;52.678;13.314;2022-10-10T13:01:51;7.28;;;2.10;;
68803;SDS011;55787;52.678;13.314;2022-10-10T13:04:23;7.00;;;1.98;;
68803;SDS011;55787;52.678;13.314;2022-10-10T13:06:52;6.55;;;2.03;;
68803;SDS011;55787;52.678;13.314;2022-10-10T13:09:24;6.73;;;2.00;;
68803;SDS011;55787;52.678;13.314;2022-10-10T13:12:01;6.90;;;2.10;;
68803;SDS011;55787;52.678;13.314;2022-10-10T13:14:42;6.88;;;2.28;;
68803;SDS011;55787;52.678;13.314;2022-10-10T13:19:49;8.90;;;2.70;;
68803;SDS011;55787;52.678;13.314;2022-10-10T13:22:16;6.43;;;1.90;;
68803;SDS011;55787;52.678;13.314;2022-10-10T13:24:44;7.57;;;2.22;;
68803;SDS011;55787;52.678;13.314;2022-10-10T13:27:14;7.38;;;2.03;;
68803;SDS011;55787;52.678;13.314;2022-10-10T13:29:42;6.38;;;2.13;;
68803;SDS011;55787;52.678;13.314;2022-10-10T13:32:30;7.35;;;2.13;;
68803;SDS011;55787;52.678;13.314;2022-10-10T13:37:27;7.85;;;2.40;;
68803;SDS011;55787;52.678;13.314;2022-10-10T13:39:56;6.72;;;2.13;;
68803;SDS011;55787;52.678;13.314;2022-10-10T13:44:53;8.00;;;1.92;;
68803;SDS011;55787;52.678;13.314;2022-10-10T13:55:48;8.27;;;2.20;;
68803;SDS011;55787;52.678;13.314;2022-10-10T13:58:14;8.68;;;2.33;;
68803;SDS011;55787;52.678;13.314;2022-10-10T14:00:41;7.13;;;2.30;;
68803;SDS011;55787;52.678;13.314;2022-10-10T14:03:15;9.13;;;2.20;;
68803;SDS011;55787;52.678;13.314;2022-10-10T14:05:45;8.23;;;2.38;;
68803;SDS011;55787;52.678;13.314;2022-10-10T14:08:15;8.85;;;2.10;;
68803;SDS011;55787;52.678;13.314;2022-10-10T14:10:54;10.75;;;2.55;;
68803;SDS011;55787;52.678;13.314;2022-10-10T14:13:24;8.30;;;2.47;;
68803;SDS011;55787;52.678;13.314;2022-10-10T14:15:51;10.43;;;2.22;;
68803;SDS011;55787;52.678;13.314;2022-10-10T14:18:19;9.40;;;2.40;;
68803;SDS011;55787;52.678;13.314;2022-10-10T14:20:48;10.27;;;2.40;;
68803;SDS011;55787;52.678;13.314;2022-10-10T14:23:15;6.38;;;1.77;;
68803;SDS011;55787;52.678;13.314;2022-10-10T14:25:43;9.07;;;2.10;;
68803;SDS011;55787;52.678;13.314;2022-10-10T14:28:15;7.97;;;2.15;;
68803;SDS011;55787;52.678;13.314;2022-10-10T14:30:44;8.20;;;2.10;;
68803;SDS011;55787;52.678;13.314;2022-10-10T14:33:12;7.60;;;2.30;;
68803;SDS011;55787;52.678;13.314;2022-10-10T14:35:40;7.88;;;2.10;;
68803;SDS011;55787;52.678;13.314;2022-10-10T14:38:10;8.53;;;2.00;;
68803;SDS011;55787;52.678;13.314;2022-10-10T14:40:42;7.57;;;2.03;;
68803;SDS011;55787;52.678;13.314;2022-10-10T14:43:10;7.82;;;2.30;;
68803;SDS011;55787;52.678;13.314;2022-10-10T14:45:37;6.68;;;1.77;;
68803;SDS011;55787;52.678;13.314;2022-10-10T14:48:04;7.72;;;2.15;;
68803;SDS011;55787;52.678;13.314;2022-10-10T14:50:32;8.50;;;2.37;;
68803;SDS011;55787;52.678;13.314;2022-10-10T14:53:01;7.40;;;1.98;;
68803;SDS011;55787;52.678;13.314;2022-10-10T14:55:27;7.50;;;2.47;;
68803;SDS011;55787;52.678;13.314;2022-10-10T14:57:54;6.72;;;2.40;;
68803;SDS011;55787;52.678;13.314;2022-10-10T15:00:21;10.00;;;2.45;;
68803;SDS011;55787;52.678;13.314;2022-10-10T15:02:49;6.73;;;1.90;;
68803;SDS011;55787;52.678;13.314;2022-10-10T15:05:16;8.40;;;2.20;;
68803;SDS011;55787;52.678;13.314;2022-10-10T15:07:43;10.32;;;2.55;;
68803;SDS011;55787;52.678;13.314;2022-10-10T15:10:11;6.28;;;2.15;;
68803;SDS011;55787;52.678;13.314;2022-10-10T15:12:58;10.07;;;2.30;;
68803;SDS011;55787;52.678;13.314;2022-10-10T15:15:25;9.67;;;2.90;;
68803;SDS011;55787;52.678;13.314;2022-10-10T15:17:51;7.45;;;2.38;;
68803;SDS011;55787;52.678;13.314;2022-10-10T15:20:18;10.18;;;2.60;;
68803;SDS011;55787;52.678;13.314;2022-10-10T15:22:45;7.32;;;2.33;;
68803;SDS011;55787;52.678;13.314;2022-10-10T15:25:12;8.90;;;2.78;;
68803;SDS011;55787;52.678;13.314;2022-10-10T15:27:39;8.60;;;2.77;;
68803;SDS011;55787;52.678;13.314;2022-10-10T15:30:05;13.50;;;6.30;;
68803;SDS011;55787;52.678;13.314;2022-10-10T15:32:35;11.02;;;5.13;;
68803;SDS011;55787;52.678;13.314;2022-10-10T15:35:03;10.15;;;3.78;;
68803;SDS011;55787;52.678;13.314;2022-10-10T15:37:29;9.60;;;3.15;;
68803;SDS011;55787;52.678;13.314;2022-10-10T15:39:56;8.40;;;2.60;;
68803;SDS011;55787;52.678;13.314;2022-10-10T15:42:22;8.30;;;2.78;;
68803;SDS011;55787;52.678;13.314;2022-10-10T15:44:49;10.88;;;2.65;;
68803;SDS011;55787;52.678;13.314;2022-10-10T15:47:17;10.40;;;2.70;;
68803;SDS011;55787;52.678;13.314;2022-10-10T15:49:44;9.18;;;2.63;;
68803;SDS011;55787;52.678;13.314;2022-10-10T15:52:11;9.30;;;2.70;;
68803;SDS011;55787;52.678;13.314;2022-10-10T15:54:38;8.85;;;2.58;;
68803;SDS011;55787;52.678;13.314;2022-10-10T15:57:04;9.90;;;2.90;;
68803;SDS011;55787;52.678;13.314;2022-10-10T15:59:31;8.70;;;3.20;;
68803;SDS011;55787;52.678;13.314;2022-10-10T16:01:58;8.73;;;3.00;;